Aeroporto :
LOGIN :

Iscrizione | Disclaimer

   EN    FR    IT 

 










Sommario :    VFR   VFR Marginale   IFR   IFR Intensivo   IFR Molto Intensivo
Visibilità : 
Base nubi : 
>= 8 km
>= 3000ft
5 / 8 km
1000 / 3000 ft
1500m / 5 km
500 / 1000 ft
800 / 1500m
200 / 500 ft
< 800m
< 200 ft
Simboli :   Temporali  Nebbia  Neve Forte  Precipitazioni Forti  Vento > 20 kt
SIGMETs :   Varie  Temporali  Ghiacco  Turbolenza  Onda orograficha  Ceneri Vulcaniche






- Altitudine del aeroporto : 144 ft
- Codice IATA : PGF


LFMP - Perpignan

ULTIMO METAR :
  • 281700Z AUTO 11003KT 070V140 CAVOK 21/12 Q1019 NOSIG

METARs OBSOLETI :
  • 281630Z AUTO 13005KT CAVOK 21/12 Q1019 NOSIG
  • 281600Z AUTO 12005KT 080V150 CAVOK 22/11 Q1018 NOSIG
  • 281530Z AUTO 12007KT CAVOK 23/11 Q1019 NOSIG
  • 281500Z AUTO 13007KT 090V160 CAVOK 23/11 Q1019 NOSIG
  • 281430Z AUTO 10007KT 060V130 CAVOK 24/10 Q1019 NOSIG

TAF TAF LFMP
Valido dal 28 a 15 ore il 29 a 15 ore UTC


281400Z 2815/2915 09008KT CAVOK
BECMG 2816/2818 VRB03KT
BECMG 2821/2823 31012KT
TEMPO 2901/2915 31017G28KT
ATIS : +33 4 68 63 75 12



MetMap, La meteo Aeronautica in un colpo d'occhio ! - Copyright ORBIFLY Dicembre 2007 - Disclaimer

ORBIFLY MET'MAP TEAM :

Programmazione e sviluppo : Alexandra Zaïnal
Concezione : Baudouin d'Aumeries
Aiuto per la programmazione : Marc-Olivier Méhu
Supporto tecnico e logistico : Manuel Goepfert
Aiuto per la traduzione : Arnaldo La Scala

Contatto : metmap@orbifly.com




FONTI E CREDITI :

   NOAA